Time;durP1;ratioP1;P1;durP2;ratioP2;P2;SDS_P1;SDS_P2;PMS_P1;PMS_P2;Temp;Humidity;BMP_temperature;BMP_pressure;BME280_temperature;BME280_humidity;BME280_pressure;Samples;Min_cycle;Max_cycle;Signal;HPM_P1;HPM_P2
2022/01/11 00:00:15;;;;;;;70.82;23.40;;;1.80;99.90;;;;;;4946206;28;20210;-75
2022/01/11 00:02:44;;;;;;;94.47;23.80;;;1.80;99.90;;;;;;4954563;29;20197;-73
2022/01/11 00:05:21;;;;;;;107.50;25.77;;;1.70;99.90;;;;;;4941674;28;20254;-75
2022/01/11 00:07:47;;;;;;;76.88;23.73;;;1.70;99.90;;;;;;4948545;29;20406;-76
2022/01/11 00:10:21;;;;;;;111.43;23.35;;;1.70;99.90;;;;;;4955722;28;20301;-71
2022/01/11 00:12:47;;;;;;;108.72;22.98;;;1.80;99.90;;;;;;4954739;28;20174;-74
2022/01/11 00:15:13;;;;;;;73.80;20.47;;;1.70;99.90;;;;;;4953156;28;20228;-73
2022/01/11 00:17:39;;;;;;;78.85;20.10;;;1.80;99.90;;;;;;4952792;29;20174;-74
2022/01/11 00:20:06;;;;;;;96.80;19.93;;;1.80;99.90;;;;;;4955052;28;20206;-74
2022/01/11 00:22:36;;;;;;;98.40;23.83;;;1.70;99.90;;;;;;4954974;29;20178;-73
2022/01/11 00:25:02;;;;;;;79.60;21.23;;;1.70;99.90;;;;;;4955839;29;20245;-74
2022/01/11 00:27:27;;;;;;;78.37;21.30;;;1.70;99.90;;;;;;4955227;29;20186;-73
2022/01/11 00:29:55;;;;;;;56.03;19.17;;;1.80;99.90;;;;;;4971337;28;20457;-75
2022/01/11 00:32:36;;;;;;;50.65;19.88;;;1.70;99.90;;;;;;4974452;28;20248;-75
2022/01/11 00:35:03;;;;;;;87.38;23.08;;;1.70;99.90;;;;;;4974304;28;20174;-74
2022/01/11 00:37:29;;;;;;;53.53;21.90;;;1.70;99.90;;;;;;4974360;28;20170;-72
2022/01/11 00:39:55;;;;;;;66.72;20.98;;;1.70;99.90;;;;;;4974214;28;20194;-73
2022/01/11 00:42:22;;;;;;;60.90;19.13;;;1.70;99.90;;;;;;4974458;28;20240;-73
2022/01/11 00:44:48;;;;;;;62.78;20.90;;;1.80;99.90;;;;;;4973628;28;20570;-75
2022/01/11 00:47:15;;;;;;;67.47;18.75;;;1.80;99.90;;;;;;4974041;28;20188;-74
2022/01/11 00:49:41;;;;;;;77.28;23.45;;;1.90;99.90;;;;;;4974325;28;20197;-75
2022/01/11 00:52:07;;;;;;;68.80;19.40;;;1.80;99.90;;;;;;4974299;28;20178;-73
2022/01/11 00:54:34;;;;;;;63.72;23.73;;;1.80;99.90;;;;;;4974750;28;20541;-75
2022/01/11 00:56:59;;;;;;;62.90;21.45;;;1.70;99.90;;;;;;4982476;28;20178;-74
2022/01/11 00:59:25;;;;;;;56.70;20.30;;;1.70;99.90;;;;;;4988881;28;20177;-72
2022/01/11 01:01:50;;;;;;;62.80;23.70;;;1.70;99.90;;;;;;4982296;28;20193;-74
2022/01/11 01:04:16;;;;;;;58.17;21.67;;;1.70;99.90;;;;;;4977094;28;20186;-74
2022/01/11 01:06:42;;;;;;;63.80;21.07;;;1.70;99.90;;;;;;4953225;29;20255;-74
2022/01/11 01:09:08;;;;;;;52.00;18.17;;;1.70;99.90;;;;;;4936655;29;20206;-74
2022/01/11 01:11:33;;;;;;;71.70;21.92;;;1.80;99.90;;;;;;4935709;29;20218;-74
2022/01/11 01:13:59;;;;;;;58.63;22.00;;;1.70;99.90;;;;;;4935562;29;20545;-73
2022/01/11 01:16:25;;;;;;;65.70;21.20;;;1.70;99.90;;;;;;4934266;29;20179;-73
2022/01/11 01:18:51;;;;;;;57.33;19.30;;;1.70;99.90;;;;;;4941801;29;20198;-75
2022/01/11 01:21:17;;;;;;;57.50;21.73;;;1.60;99.90;;;;;;4945633;29;20194;-75
2022/01/11 01:23:43;;;;;;;66.90;21.25;;;1.60;99.90;;;;;;4958422;29;20418;-75
2022/01/11 01:26:09;;;;;;;59.50;22.07;;;1.70;99.90;;;;;;4956285;29;20186;-75
2022/01/11 01:28:35;;;;;;;61.97;21.10;;;1.70;99.90;;;;;;4959701;28;20189;-75
2022/01/11 01:31:01;;;;;;;58.70;21.83;;;1.60;99.90;;;;;;4962625;28;20468;-75
2022/01/11 01:33:31;;;;;;;55.63;21.58;;;1.60;99.90;;;;;;4953424;29;20170;-73
2022/01/11 01:36:04;;;;;;;51.50;18.42;;;1.70;99.90;;;;;;4954309;29;20174;-75
2022/01/11 01:38:32;;;;;;;47.03;18.85;;;1.70;96.90;;;;;;4954387;29;20201;-74
2022/01/11 01:41:08;;;;;;;46.97;18.00;;;1.70;96.70;;;;;;4953975;28;20296;-74
2022/01/11 01:43:34;;;;;;;49.60;19.15;;;1.70;95.30;;;;;;4954233;29;20178;-74
2022/01/11 01:46:00;;;;;;;52.90;21.50;;;1.70;95.50;;;;;;4954441;29;20556;-73
2022/01/11 01:48:27;;;;;;;50.08;18.83;;;1.60;96.30;;;;;;4953289;29;20659;-74
2022/01/11 01:50:53;;;;;;;57.95;20.85;;;1.60;99.40;;;;;;4954600;28;20257;-74
2022/01/11 01:53:19;;;;;;;58.95;20.83;;;1.60;99.30;;;;;;4961927;28;20175;-73
2022/01/11 01:55:46;;;;;;;58.30;19.73;;;1.70;96.60;;;;;;4964101;28;20167;-74
2022/01/11 01:58:14;;;;;;;56.10;21.05;;;1.70;96.90;;;;;;4963880;28;20210;-74
2022/01/11 02:00:43;;;;;;;55.78;20.75;;;1.70;95.30;;;;;;4966067;29;20202;-73
2022/01/11 02:03:12;;;;;;;59.40;21.42;;;1.60;95.60;;;;;;4966353;29;20210;-74
2022/01/11 02:05:39;;;;;;;56.55;20.17;;;1.60;96.10;;;;;;4948462;29;20661;-73
2022/01/11 02:08:06;;;;;;;53.78;19.05;;;1.60;96.40;;;;;;4944129;29;20179;-73
2022/01/11 02:10:32;;;;;;;53.15;19.30;;;1.60;97.30;;;;;;4940717;29;20242;-73
2022/01/11 02:13:00;;;;;;;51.83;19.77;;;1.60;97.30;;;;;;4958036;29;20273;-75
2022/01/11 02:15:26;;;;;;;48.15;20.48;;;1.70;97.00;;;;;;4958464;29;20461;-74
2022/01/11 02:17:52;;;;;;;53.88;21.30;;;1.70;97.50;;;;;;4957864;29;20723;-74
2022/01/11 02:20:18;;;;;;;55.43;23.83;;;1.70;96.30;;;;;;4957661;28;20273;-74
2022/01/11 02:22:43;;;;;;;56.93;21.40;;;1.70;95.90;;;;;;4955871;29;20554;-73
2022/01/11 02:25:09;;;;;;;50.80;20.37;;;1.70;95.90;;;;;;4954585;29;20449;-74
2022/01/11 02:27:35;;;;;;;56.55;21.27;;;1.70;95.40;;;;;;4957456;29;20590;-74
2022/01/11 02:30:02;;;;;;;57.33;20.10;;;1.70;94.60;;;;;;4974391;28;20260;-73
2022/01/11 02:32:27;;;;;;;52.03;19.42;;;1.70;94.80;;;;;;4959973;28;20422;-74
2022/01/11 02:34:53;;;;;;;51.83;20.43;;;1.70;95.90;;;;;;4957918;29;20270;-74
2022/01/11 02:37:18;;;;;;;52.30;17.97;;;1.70;96.40;;;;;;4958090;29;20190;-73
2022/01/11 02:39:45;;;;;;;54.07;21.07;;;1.70;95.30;;;;;;4958016;28;20269;-74
2022/01/11 02:42:11;;;;;;;61.03;23.65;;;1.70;94.90;;;;;;4957861;29;20185;-73
2022/01/11 02:44:37;;;;;;;51.07;20.10;;;1.60;96.50;;;;;;4957215;29;20261;-75
2022/01/11 02:47:03;;;;;;;49.67;19.60;;;1.70;95.00;;;;;;4957171;29;20410;-75
2022/01/11 02:49:28;;;;;;;54.70;22.17;;;1.70;94.50;;;;;;4956707;29;20990;-75
2022/01/11 02:51:54;;;;;;;50.70;20.07;;;1.70;97.00;;;;;;4956586;28;20301;-74
2022/01/11 02:54:21;;;;;;;61.50;22.20;;;1.70;96.90;;;;;;4955482;29;20643;-74
2022/01/11 02:56:46;;;;;;;58.33;20.88;;;1.70;97.50;;;;;;4956633;29;20438;-75
2022/01/11 02:59:12;;;;;;;50.67;19.60;;;1.70;96.90;;;;;;4956818;29;20174;-74
2022/01/11 03:01:38;;;;;;;45.70;18.60;;;1.70;95.60;;;;;;4956498;28;20210;-75
2022/01/11 03:04:03;;;;;;;60.53;20.60;;;1.70;96.10;;;;;;4949509;28;20187;-72
2022/01/11 03:06:29;;;;;;;48.40;21.03;;;1.70;94.80;;;;;;4937262;29;20595;-75
2022/01/11 03:08:54;;;;;;;51.40;19.90;;;1.70;92.30;;;;;;4937313;29;20263;-73
2022/01/11 03:11:21;;;;;;;55.77;22.00;;;1.60;92.80;;;;;;4943753;29;20261;-73
2022/01/11 03:13:48;;;;;;;52.65;19.90;;;1.60;93.90;;;;;;4956937;28;20182;-74
2022/01/11 03:16:17;;;;;;;51.38;20.05;;;1.60;95.60;;;;;;4956901;28;20234;-74
2022/01/11 03:18:44;;;;;;;52.83;21.38;;;1.60;96.40;;;;;;4957547;28;20234;-75
2022/01/11 03:21:11;;;;;;;51.00;19.92;;;1.70;94.40;;;;;;4959196;28;20212;-74
2022/01/11 03:23:37;;;;;;;53.72;21.30;;;1.70;93.30;;;;;;4957654;29;20205;-73
2022/01/11 03:26:03;;;;;;;54.25;22.50;;;1.70;93.10;;;;;;4965919;29;20186;-73
2022/01/11 03:28:29;;;;;;;45.70;19.40;;;1.70;92.50;;;;;;4969745;28;20677;-73
2022/01/11 03:30:56;;;;;;;55.28;20.85;;;1.60;93.20;;;;;;4963557;28;20309;-73
2022/01/11 03:33:22;;;;;;;57.50;21.63;;;1.60;93.90;;;;;;4969148;28;20206;-74
2022/01/11 03:35:48;;;;;;;49.53;20.08;;;1.60;93.20;;;;;;4972053;29;20648;-73
2022/01/11 03:38:15;;;;;;;44.58;19.40;;;1.60;91.50;;;;;;4971615;29;20210;-74
2022/01/11 03:40:42;;;;;;;56.58;20.25;;;1.60;93.80;;;;;;4965886;29;20236;-73
2022/01/11 03:43:08;;;;;;;52.03;19.60;;;1.60;94.20;;;;;;4956332;28;20232;-74
2022/01/11 03:45:35;;;;;;;52.45;22.27;;;1.50;95.80;;;;;;4956227;28;20186;-73
2022/01/11 03:48:04;;;;;;;50.45;20.08;;;1.60;95.80;;;;;;4956548;28;20632;-75
2022/01/11 03:50:32;;;;;;;57.83;21.38;;;1.60;95.90;;;;;;4955468;28;20781;-75
2022/01/11 03:53:05;;;;;;;55.78;21.50;;;1.60;95.80;;;;;;4955763;29;20185;-75
2022/01/11 03:58:16;;;;;;;61.55;21.42;;;1.60;96.30;;;;;;4956222;29;20240;-75
2022/01/11 04:00:43;;;;;;;52.22;18.83;;;1.60;93.90;;;;;;4958223;29;20694;-74
2022/01/11 04:03:09;;;;;;;56.17;20.27;;;1.70;92.40;;;;;;4958124;29;20174;-75
2022/01/11 04:05:35;;;;;;;57.75;19.60;;;1.60;92.40;;;;;;4941546;29;20234;-75
2022/01/11 04:08:00;;;;;;;47.20;18.63;;;1.70;91.20;;;;;;4941609;29;20175;-74
2022/01/11 04:10:26;;;;;;;64.30;19.80;;;1.60;91.80;;;;;;4960035;29;20210;-73
2022/01/11 04:12:53;;;;;;;58.93;22.20;;;1.60;93.30;;;;;;4970845;29;20178;-75
2022/01/11 04:15:19;;;;;;;53.50;19.58;;;1.60;94.10;;;;;;4961024;29;20181;-74
2022/01/11 04:17:45;;;;;;;53.90;21.52;;;1.60;93.70;;;;;;4953797;29;20179;-75
2022/01/11 04:20:11;;;;;;;52.90;20.60;;;1.60;93.80;;;;;;4954384;28;20198;-74
2022/01/11 04:22:37;;;;;;;72.60;23.50;;;1.60;95.40;;;;;;4955053;29;20182;-75
2022/01/11 04:25:03;;;;;;;59.03;20.30;;;1.60;95.40;;;;;;4957684;29;20182;-74
2022/01/11 04:27:29;;;;;;;63.33;21.23;;;1.50;96.30;;;;;;4964246;29;20262;-74
2022/01/11 04:32:34;;;;;;;58.05;22.65;;;1.50;97.70;;;;;;4973217;28;20205;-75
2022/01/11 04:35:02;;;;;;;56.17;20.50;;;1.50;98.10;;;;;;4974241;28;20669;-74
2022/01/11 04:37:27;;;;;;;57.75;20.10;;;1.60;96.50;;;;;;4974035;28;20173;-74
2022/01/11 04:39:53;;;;;;;57.13;20.80;;;1.60;97.00;;;;;;4968974;28;20182;-74
2022/01/11 04:42:19;;;;;;;61.63;20.90;;;1.50;97.90;;;;;;4985401;28;20240;-75
2022/01/11 04:44:44;;;;;;;55.27;21.30;;;1.60;98.30;;;;;;4953815;28;20170;-75
2022/01/11 04:47:11;;;;;;;64.00;22.10;;;1.70;98.00;;;;;;4954261;29;20741;-75
2022/01/11 04:49:36;;;;;;;65.40;23.65;;;1.60;97.40;;;;;;4987596;28;20224;-73
2022/01/11 04:52:02;;;;;;;55.77;21.90;;;1.70;97.70;;;;;;4973650;28;20214;-74
2022/01/11 04:54:28;;;;;;;56.67;19.58;;;1.60;97.50;;;;;;4974065;28;20206;-74
2022/01/11 04:56:54;;;;;;;60.67;22.33;;;1.60;98.00;;;;;;4972573;28;20174;-75
2022/01/11 04:59:19;;;;;;;65.63;24.07;;;1.70;97.30;;;;;;4973972;28;20295;-74
2022/01/11 05:01:45;;;;;;;53.70;22.10;;;1.70;96.70;;;;;;4973489;28;20221;-75
2022/01/11 05:04:13;;;;;;;65.30;23.20;;;1.70;95.00;;;;;;4974124;28;20250;-74
2022/01/11 05:06:38;;;;;;;55.35;22.05;;;1.80;92.00;;;;;;4974107;28;20530;-76
2022/01/11 05:09:04;;;;;;;56.27;20.57;;;1.70;93.70;;;;;;4973928;28;20178;-73
2022/01/11 05:11:29;;;;;;;58.03;21.70;;;1.80;94.60;;;;;;4956632;28;20217;-73
2022/01/11 05:13:55;;;;;;;59.00;22.87;;;1.80;93.60;;;;;;4954951;29;20193;-74
2022/01/11 05:16:20;;;;;;;72.20;32.60;;;1.80;92.70;;;;;;4954341;29;20175;-74
2022/01/11 05:18:46;;;;;;;62.53;22.73;;;1.80;90.80;;;;;;4954438;29;20258;-75
2022/01/11 05:21:12;;;;;;;67.50;24.77;;;1.80;90.90;;;;;;4967984;28;20205;-75
2022/01/11 05:23:37;;;;;;;67.83;23.23;;;1.80;90.20;;;;;;4960375;28;20261;-75
2022/01/11 05:26:04;;;;;;;67.13;23.50;;;1.70;90.80;;;;;;4954244;29;20253;-74
2022/01/11 05:28:29;;;;;;;69.40;24.23;;;1.80;90.60;;;;;;4972758;28;20209;-74
2022/01/11 05:30:55;;;;;;;62.67;22.90;;;1.70;90.20;;;;;;4988033;28;20217;-74
2022/01/11 05:33:21;;;;;;;83.67;22.17;;;1.80;92.50;;;;;;4958455;28;20185;-73
2022/01/11 05:35:47;;;;;;;62.50;22.33;;;1.80;89.10;;;;;;4953243;29;20189;-75
2022/01/11 05:38:13;;;;;;;60.20;22.67;;;1.80;90.20;;;;;;4954147;29;20539;-75
2022/01/11 05:40:39;;;;;;;60.22;22.85;;;1.70;90.90;;;;;;4952788;29;20206;-75
2022/01/11 05:43:06;;;;;;;57.53;20.67;;;1.70;92.30;;;;;;4966587;28;20197;-75
2022/01/11 05:45:31;;;;;;;59.20;22.20;;;1.60;94.20;;;;;;4973242;28;20565;-75
2022/01/11 05:47:58;;;;;;;55.70;21.57;;;1.70;91.50;;;;;;4973001;28;20181;-75
2022/01/11 05:50:23;;;;;;;56.65;20.58;;;1.80;90.70;;;;;;4973501;28;20555;-75
2022/01/11 05:52:49;;;;;;;70.90;20.50;;;1.70;89.40;;;;;;4973245;28;20249;-74
2022/01/11 05:55:17;;;;;;;50.67;21.27;;;1.60;88.20;;;;;;4973803;28;20185;-75
2022/01/11 05:57:43;;;;;;;62.35;22.35;;;1.50;90.00;;;;;;4973914;28;20174;-74
2022/01/11 06:00:15;;;;;;;54.60;20.70;;;1.50;90.30;;;;;;4974640;28;20190;-74
2022/01/11 06:02:44;;;;;;;59.13;21.02;;;1.50;90.80;;;;;;4966480;28;20497;-74
2022/01/11 06:05:10;;;;;;;51.63;18.60;;;1.50;91.70;;;;;;4970564;28;20212;-74
2022/01/11 06:07:37;;;;;;;64.85;23.75;;;1.40;92.40;;;;;;4972784;28;20185;-74
2022/01/11 06:10:03;;;;;;;56.30;20.00;;;1.50;92.10;;;;;;4974703;28;20212;-74
2022/01/11 06:12:29;;;;;;;72.78;24.35;;;1.40;92.90;;;;;;4987064;28;20193;-71
2022/01/11 06:14:55;;;;;;;59.13;20.97;;;1.50;94.80;;;;;;4987055;28;20272;-71
2022/01/11 06:17:20;;;;;;;58.17;21.57;;;1.50;93.70;;;;;;4974019;28;20174;-71
2022/01/11 06:19:46;;;;;;;53.10;21.60;;;1.60;91.80;;;;;;4974583;28;20209;-72
2022/01/11 06:22:11;;;;;;;60.57;22.93;;;1.60;90.10;;;;;;4970621;28;20199;-72
2022/01/11 06:24:37;;;;;;;66.63;22.37;;;1.70;88.00;;;;;;4973389;28;20216;-73
2022/01/11 06:27:02;;;;;;;55.77;21.60;;;1.50;88.40;;;;;;4979775;28;20224;-71
2022/01/11 06:29:28;;;;;;;60.13;20.93;;;1.50;89.70;;;;;;4981847;28;20564;-73
2022/01/11 06:31:54;;;;;;;51.17;19.77;;;1.50;91.00;;;;;;4982881;28;20465;-71
2022/01/11 06:34:19;;;;;;;62.37;25.03;;;1.40;90.20;;;;;;4963194;28;20593;-72
2022/01/11 06:36:45;;;;;;;64.00;21.27;;;1.40;91.70;;;;;;4964761;28;20204;-71
2022/01/11 06:39:10;;;;;;;56.50;22.23;;;1.40;92.80;;;;;;4974697;28;20238;-72
2022/01/11 06:41:36;;;;;;;53.53;21.40;;;1.40;92.90;;;;;;4966370;28;20640;-74
2022/01/11 06:44:02;;;;;;;63.93;23.80;;;1.30;93.90;;;;;;4962967;28;20630;-72
2022/01/11 06:46:28;;;;;;;60.93;25.00;;;1.40;92.40;;;;;;4975942;28;20300;-71
2022/01/11 06:48:57;;;;;;;57.05;20.55;;;1.40;93.50;;;;;;4974253;28;20186;-72
2022/01/11 06:51:22;;;;;;;52.22;21.23;;;1.40;93.00;;;;;;4976908;28;20267;-73
2022/01/11 06:53:48;;;;;;;48.43;19.70;;;1.50;90.70;;;;;;4972001;28;20365;-71
2022/01/11 06:56:14;;;;;;;54.43;18.80;;;1.40;89.10;;;;;;4974033;28;20178;-72
2022/01/11 06:58:39;;;;;;;60.70;22.60;;;1.50;87.40;;;;;;4962521;28;20174;-73
2022/01/11 07:01:05;;;;;;;58.30;21.37;;;1.40;86.30;;;;;;4963287;29;20238;-72
2022/01/11 07:03:31;;;;;;;60.97;20.55;;;1.30;87.10;;;;;;4957106;28;20190;-73
2022/01/11 07:05:56;;;;;;;52.93;20.83;;;1.30;88.90;;;;;;4957004;29;20253;-73
2022/01/11 07:08:23;;;;;;;50.80;21.27;;;1.30;89.50;;;;;;4970266;28;20180;-72
2022/01/11 07:10:48;;;;;;;53.25;19.55;;;1.30;88.80;;;;;;4974579;28;20205;-74
2022/01/11 07:13:15;;;;;;;52.20;22.40;;;1.30;90.60;;;;;;4976659;28;20569;-72
2022/01/11 07:15:41;;;;;;;56.28;20.90;;;1.30;91.00;;;;;;4967228;28;20181;-72
2022/01/11 07:18:09;;;;;;;51.03;21.23;;;1.40;89.20;;;;;;4956684;29;20183;-75
2022/01/11 07:20:37;;;;;;;54.75;20.55;;;1.30;89.60;;;;;;4956421;29;20194;-73
2022/01/11 07:23:03;;;;;;;45.80;18.80;;;1.30;89.10;;;;;;4959682;28;20245;-72
2022/01/11 07:25:30;;;;;;;53.78;18.73;;;1.30;88.50;;;;;;4963917;28;20190;-72
2022/01/11 07:27:56;;;;;;;55.47;19.42;;;1.30;88.00;;;;;;4976148;28;20244;-71
2022/01/11 07:30:22;;;;;;;57.42;19.73;;;1.30;87.80;;;;;;4992752;28;20202;-73
2022/01/11 07:32:48;;;;;;;62.90;24.07;;;1.40;88.10;;;;;;4975728;28;20178;-73
2022/01/11 07:35:13;;;;;;;48.40;19.87;;;1.30;87.20;;;;;;4975813;28;20261;-73
2022/01/11 07:37:39;;;;;;;58.17;21.87;;;1.20;88.30;;;;;;4956408;28;20178;-75
2022/01/11 07:40:05;;;;;;;52.90;20.60;;;1.20;89.70;;;;;;4973790;28;20558;-75
2022/01/11 07:42:31;;;;;;;60.33;23.20;;;1.30;88.70;;;;;;4974332;28;20220;-74
2022/01/11 07:44:57;;;;;;;55.80;20.60;;;1.40;87.00;;;;;;4975535;28;20177;-73
2022/01/11 07:47:22;;;;;;;58.27;21.57;;;1.40;85.90;;;;;;4974372;28;20569;-72
2022/01/11 07:49:48;;;;;;;67.63;25.20;;;1.40;85.70;;;;;;4975912;28;20174;-74
2022/01/11 07:52:15;;;;;;;54.97;20.80;;;1.40;86.40;;;;;;4975291;28;20213;-73
2022/01/11 07:54:40;;;;;;;62.13;22.95;;;1.40;87.30;;;;;;4972703;28;20428;-76
2022/01/11 07:57:06;;;;;;;62.73;22.20;;;1.40;85.20;;;;;;4956338;28;20186;-77
2022/01/11 07:59:32;;;;;;;54.80;20.87;;;1.40;85.10;;;;;;4955258;28;20182;-75
2022/01/11 08:01:59;;;;;;;57.60;21.50;;;1.30;85.60;;;;;;4958001;28;20802;-75
2022/01/11 08:04:26;;;;;;;63.25;22.73;;;1.30;87.00;;;;;;4967886;28;20197;-76
2022/01/11 08:06:52;;;;;;;60.80;23.25;;;1.30;87.00;;;;;;4975092;28;20194;-72
2022/01/11 08:09:18;;;;;;;71.77;24.27;;;1.40;87.60;;;;;;4972766;28;20590;-73
2022/01/11 08:11:44;;;;;;;56.33;23.73;;;1.50;85.60;;;;;;4967207;28;20879;-73
2022/01/11 08:14:10;;;;;;;61.90;23.48;;;1.50;82.70;;;;;;4966874;28;20493;-74
2022/01/11 08:16:35;;;;;;;62.53;24.90;;;1.40;83.60;;;;;;4978098;28;20198;-77
2022/01/11 08:19:01;;;;;;;61.53;21.67;;;1.50;84.80;;;;;;4966090;28;20236;-77
2022/01/11 08:21:26;;;;;;;54.93;22.80;;;1.50;84.80;;;;;;4968046;28;20236;-76
2022/01/11 08:23:52;;;;;;;70.30;26.03;;;1.40;85.80;;;;;;4992927;28;20182;-75
2022/01/11 08:26:18;;;;;;;62.13;25.77;;;1.50;86.20;;;;;;4971519;28;20267;-76
2022/01/11 08:28:44;;;;;;;63.83;22.87;;;1.50;86.40;;;;;;4969033;28;20204;-77
2022/01/11 08:31:10;;;;;;;59.92;23.33;;;1.60;85.30;;;;;;4976973;28;20225;-76
2022/01/11 08:33:36;;;;;;;66.70;23.90;;;1.60;83.60;;;;;;4973261;28;20197;-76
2022/01/11 08:36:02;;;;;;;63.03;22.10;;;1.60;82.20;;;;;;4970644;28;20174;-75
2022/01/11 08:38:27;;;;;;;59.60;24.00;;;1.60;82.70;;;;;;4974500;28;20455;-78
2022/01/11 08:40:53;;;;;;;58.20;22.90;;;1.60;82.40;;;;;;4964405;28;20958;-76
2022/01/11 08:43:19;;;;;;;53.40;22.83;;;1.60;83.10;;;;;;4965259;28;20591;-77
2022/01/11 08:45:44;;;;;;;58.13;24.33;;;1.70;81.90;;;;;;4972957;28;20182;-77
2022/01/11 08:48:10;;;;;;;62.50;24.90;;;1.80;80.80;;;;;;4970944;28;20638;-77
2022/01/11 08:50:35;;;;;;;67.43;26.07;;;1.90;80.20;;;;;;4972779;28;20213;-76
2022/01/11 08:53:02;;;;;;;61.67;24.60;;;1.90;77.80;;;;;;4978046;28;20263;-76
2022/01/11 08:55:27;;;;;;;60.28;23.58;;;1.90;78.40;;;;;;4981590;28;20185;-78
2022/01/11 08:57:53;;;;;;;64.30;27.37;;;1.90;78.60;;;;;;4966327;28;20193;-77
2022/01/11 09:00:19;;;;;;;68.27;25.53;;;2.00;77.80;;;;;;4970495;28;20232;-76
2022/01/11 09:02:47;;;;;;;76.00;26.75;;;2.10;76.60;;;;;;4954935;28;20525;-77
2022/01/11 09:05:14;;;;;;;73.53;27.73;;;2.10;76.10;;;;;;4968632;28;20182;-76
2022/01/11 09:07:40;;;;;;;60.67;22.83;;;2.10;75.20;;;;;;4965327;28;20186;-76
2022/01/11 09:10:07;;;;;;;62.43;25.40;;;2.10;74.50;;;;;;4972696;28;20189;-75
2022/01/11 09:12:33;;;;;;;59.20;24.77;;;2.10;74.60;;;;;;4969082;28;20623;-75
2022/01/11 09:15:00;;;;;;;65.40;27.90;;;2.10;73.00;;;;;;4970136;28;20192;-77
2022/01/11 09:17:26;;;;;;;62.35;24.73;;;2.10;71.80;;;;;;4965424;28;20484;-75
2022/01/11 09:19:52;;;;;;;65.17;24.60;;;2.10;73.40;;;;;;4962812;28;20186;-76
2022/01/11 09:22:18;;;;;;;60.47;25.17;;;2.20;71.70;;;;;;4973880;28;20619;-76
2022/01/11 09:24:43;;;;;;;60.23;24.60;;;2.20;70.40;;;;;;4974128;28;20200;-77
2022/01/11 09:27:09;;;;;;;68.43;24.30;;;2.20;70.40;;;;;;4976377;28;20666;-73
2022/01/11 09:29:39;;;;;;;68.47;27.33;;;2.30;70.40;;;;;;4974612;28;20202;-74
2022/01/11 09:32:06;;;;;;;77.45;27.30;;;2.40;69.70;;;;;;4982675;28;20241;-74
2022/01/11 09:34:32;;;;;;;71.25;26.13;;;2.40;68.50;;;;;;4970232;28;20198;-75
2022/01/11 09:36:58;;;;;;;65.90;26.57;;;2.50;67.70;;;;;;4980400;28;20188;-76
2022/01/11 09:39:24;;;;;;;64.43;25.93;;;2.50;68.70;;;;;;4988845;28;20465;-75
2022/01/11 09:41:50;;;;;;;70.97;28.07;;;2.60;67.40;;;;;;4986991;28;20575;-76
2022/01/11 09:44:16;;;;;;;74.10;28.52;;;2.50;67.60;;;;;;4969944;28;20178;-76
2022/01/11 09:46:41;;;;;;;62.53;26.05;;;2.50;66.40;;;;;;4985459;28;20178;-75
2022/01/11 09:49:07;;;;;;;74.33;27.57;;;2.60;67.30;;;;;;4980680;28;20184;-77
2022/01/11 09:51:36;;;;;;;70.03;26.50;;;2.60;66.60;;;;;;4964125;28;20217;-77
2022/01/11 09:54:05;;;;;;;62.83;24.60;;;2.60;65.70;;;;;;4970381;28;20229;-75
2022/01/11 09:56:37;;;;;;;68.40;25.80;;;2.80;63.80;;;;;;4963302;28;20526;-77
2022/01/11 09:59:04;;;;;;;57.85;23.88;;;2.70;62.60;;;;;;4966592;28;20186;-75
2022/01/11 10:01:29;;;;;;;56.17;24.05;;;2.60;62.50;;;;;;4958219;28;20212;-74
2022/01/11 10:04:05;;;;;;;53.40;21.03;;;2.60;62.80;;;;;;4961035;28;20256;-76
2022/01/11 10:06:37;;;;;;;50.95;20.75;;;2.60;63.20;;;;;;4954548;28;20186;-77
2022/01/11 10:09:11;;;;;;;46.33;19.85;;;2.60;63.20;;;;;;4972124;28;20192;-77
2022/01/11 10:11:43;;;;;;;55.92;22.67;;;2.60;63.30;;;;;;4973845;28;20233;-75
2022/01/11 10:14:26;;;;;;;46.00;19.33;;;2.70;62.50;;;;;;4972224;28;20182;-74
2022/01/11 10:17:18;;;;;;;48.83;17.70;;;2.70;63.30;;;;;;4972861;28;20254;-77
2022/01/11 10:19:49;;;;;;;38.63;18.08;;;2.70;62.80;;;;;;4958380;28;20187;-74
2022/01/11 10:22:19;;;;;;;46.13;19.45;;;2.70;63.30;;;;;;4961173;28;20206;-75
2022/01/11 10:24:50;;;;;;;40.40;18.98;;;2.60;62.90;;;;;;4962681;28;20187;-73
2022/01/11 10:27:24;;;;;;;39.90;19.83;;;2.70;62.00;;;;;;4968892;28;20647;-75
2022/01/11 10:30:03;;;;;;;45.85;19.63;;;2.70;61.10;;;;;;4979329;28;20575;-74
2022/01/11 10:32:37;;;;;;;45.35;19.92;;;2.70;62.20;;;;;;4965920;23;20307;-73
2022/01/11 10:35:02;;;;;;;47.75;20.00;;;2.80;61.50;;;;;;4957602;29;20585;-75
2022/01/11 10:37:38;;;;;;;36.00;16.63;;;2.80;62.90;;;;;;4961875;29;20178;-74
2022/01/11 10:40:09;;;;;;;44.10;19.35;;;2.80;62.00;;;;;;4957489;29;20230;-76
2022/01/11 10:42:41;;;;;;;44.97;18.55;;;2.90;62.40;;;;;;4964715;29;20271;-80
2022/01/11 10:45:10;;;;;;;37.88;17.30;;;3.00;61.90;;;;;;4962540;29;20174;-74
2022/01/11 10:47:39;;;;;;;43.83;19.85;;;3.10;58.90;;;;;;4941550;29;20288;-75
2022/01/11 10:50:34;;;;;;;42.15;18.77;;;3.10;58.90;;;;;;4958434;29;20385;-75
2022/01/11 10:53:03;;;;;;;41.03;17.98;;;3.10;58.70;;;;;;4941283;29;20250;-74
2022/01/11 10:55:31;;;;;;;38.28;17.30;;;3.20;57.80;;;;;;4957845;29;20174;-75
2022/01/11 10:58:04;;;;;;;36.80;16.65;;;3.20;57.50;;;;;;4957348;29;20225;-74
2022/01/11 11:00:35;;;;;;;46.50;18.33;;;3.20;58.00;;;;;;4957144;29;20631;-74
2022/01/11 11:03:16;;;;;;;42.88;17.80;;;3.20;58.10;;;;;;4957452;29;20187;-75
2022/01/11 11:05:47;;;;;;;38.05;17.80;;;3.20;58.20;;;;;;4921631;29;20183;-74
2022/01/11 11:08:14;;;;;;;33.15;14.93;;;3.20;58.30;;;;;;4951192;29;20187;-73
2022/01/11 11:10:44;;;;;;;33.90;14.90;;;3.30;57.10;;;;;;4951046;29;20210;-74
2022/01/11 11:13:17;;;;;;;34.22;16.48;;;3.30;58.00;;;;;;4956267;28;20179;-75
2022/01/11 11:15:43;;;;;;;33.63;16.50;;;3.30;58.00;;;;;;4956702;29;20181;-76
2022/01/11 11:18:42;;;;;;;34.73;16.17;;;3.30;58.30;;;;;;4958103;29;20179;-75
2022/01/11 11:21:18;;;;;;;43.45;16.83;;;3.40;58.40;;;;;;4909014;29;20309;-76
2022/01/11 11:23:44;;;;;;;39.63;18.65;;;3.40;59.00;;;;;;4959325;29;20174;-76
2022/01/11 11:26:10;;;;;;;36.60;16.33;;;3.50;58.40;;;;;;4957445;29;20178;-75
2022/01/11 11:28:38;;;;;;;37.28;16.42;;;3.60;57.20;;;;;;4963026;28;20257;-75
2022/01/11 11:31:04;;;;;;;36.22;16.35;;;3.60;56.00;;;;;;4981717;28;20277;-75
2022/01/11 11:33:30;;;;;;;41.40;17.30;;;3.60;55.80;;;;;;4974339;28;20250;-74
2022/01/11 11:35:57;;;;;;;37.50;18.57;;;3.60;56.50;;;;;;4958711;29;20414;-75
2022/01/11 11:38:29;;;;;;;38.33;17.33;;;3.70;56.70;;;;;;4964743;29;20819;-74
2022/01/11 11:40:55;;;;;;;33.47;16.17;;;3.70;56.10;;;;;;4966320;29;20623;-74
2022/01/11 11:43:22;;;;;;;33.97;17.13;;;3.70;56.70;;;;;;4957818;29;20210;-75
2022/01/11 11:45:48;;;;;;;38.85;16.90;;;3.70;56.00;;;;;;4958304;29;20191;-76
2022/01/11 11:48:16;;;;;;;38.63;19.67;;;3.70;56.10;;;;;;4944571;29;20454;-76
2022/01/11 11:50:52;;;;;;;40.58;22.35;;;3.80;56.60;;;;;;4965010;29;20414;-74
2022/01/11 11:53:30;;;;;;;41.33;22.02;;;3.90;56.70;;;;;;4956511;29;20406;-76
2022/01/11 11:56:17;;;;;;;40.38;20.63;;;4.00;56.80;;;;;;4957734;29;20408;-75
2022/01/11 11:58:52;;;;;;;40.97;20.08;;;4.20;56.70;;;;;;4958194;29;20400;-75
2022/01/11 12:01:44;;;;;;;46.22;20.60;;;4.20;55.30;;;;;;4957672;29;20414;-76
2022/01/11 12:04:36;;;;;;;42.00;21.33;;;4.20;54.00;;;;;;4957888;29;20501;-76
2022/01/11 12:07:29;;;;;;;35.43;20.10;;;4.30;54.40;;;;;;4957519;29;20417;-75
2022/01/11 12:09:55;;;;;;;42.63;21.88;;;4.30;55.00;;;;;;4943004;29;20432;-75
2022/01/11 12:12:42;;;;;;;39.20;20.20;;;4.60;54.00;;;;;;4949297;29;20418;-75
2022/01/11 12:15:35;;;;;;;35.67;20.70;;;4.60;52.50;;;;;;4966291;29;20747;-74
2022/01/11 12:18:00;;;;;;;39.00;21.67;;;4.60;52.30;;;;;;4961025;29;20768;-75
2022/01/11 12:20:47;;;;;;;38.20;20.55;;;4.70;52.90;;;;;;4958790;29;20402;-74
2022/01/11 12:23:20;;;;;;;39.75;21.00;;;4.70;53.20;;;;;;4957473;29;20390;-75
2022/01/11 12:25:51;;;;;;;40.15;20.70;;;4.80;52.60;;;;;;4956475;29;20397;-75
2022/01/11 12:28:22;;;;;;;39.67;20.75;;;4.90;51.80;;;;;;4942387;28;20404;-75
2022/01/11 12:30:48;;;;;;;45.33;21.77;;;5.00;50.50;;;;;;4956872;28;20435;-76
2022/01/11 12:33:21;;;;;;;39.05;19.92;;;5.10;50.30;;;;;;4975631;28;20392;-75
2022/01/11 12:35:54;;;;;;;43.10;20.92;;;5.20;50.20;;;;;;4962828;28;20808;-76
2022/01/11 12:38:21;;;;;;;50.58;22.90;;;5.20;50.30;;;;;;4955402;29;20397;-75
2022/01/11 12:40:47;;;;;;;46.42;22.70;;;5.20;50.00;;;;;;4955289;28;20755;-76
2022/01/11 12:43:20;;;;;;;43.45;22.63;;;5.20;49.90;;;;;;4955700;29;20461;-75